createdAt,value
2024-04-22T00:00:07.195Z,102408.44
2024-04-22T00:02:33.728Z,102410.88
2024-04-22T00:05:00.303Z,102397.47
2024-04-22T00:07:26.864Z,102414.19
2024-04-22T00:09:53.316Z,102412.66
2024-04-22T00:12:19.783Z,102412.34
2024-04-22T00:14:46.450Z,102404.09
2024-04-22T00:17:12.951Z,102407.38
2024-04-22T00:19:39.500Z,102400.31
2024-04-22T00:22:05.999Z,102403.13
2024-04-22T00:24:32.476Z,102403.09
2024-04-22T00:26:58.979Z,102400.38
2024-04-22T00:29:25.429Z,102396.66
2024-04-22T00:31:51.890Z,102396.97
2024-04-22T00:34:18.391Z,102400.16
2024-04-22T00:36:44.860Z,102394.47
2024-04-22T00:39:11.417Z,102390.38
2024-04-22T00:41:37.889Z,102394.19
2024-04-22T00:44:04.625Z,102391.00
2024-04-22T00:46:31.315Z,102397.75
2024-04-22T00:48:58.022Z,102388.31
2024-04-22T00:51:24.730Z,102391.47
2024-04-22T00:53:51.713Z,102391.47
2024-04-22T00:56:18.625Z,102386.44
2024-04-22T00:58:46.692Z,102395.16
2024-04-22T01:01:13.720Z,102376.38
2024-04-22T01:03:40.351Z,102381.31
2024-04-22T01:06:06.892Z,102376.50
2024-04-22T01:08:33.370Z,102373.19
2024-04-22T01:11:00.009Z,102373.34
2024-04-22T01:13:26.595Z,102381.47
2024-04-22T01:15:53.128Z,102383.59
2024-04-22T01:18:20.342Z,102374.03
2024-04-22T01:20:47.199Z,102376.56
2024-04-22T01:23:13.722Z,102367.47
2024-04-22T01:25:44.168Z,102368.84
2024-04-22T01:28:10.666Z,102367.94
2024-04-22T01:30:37.154Z,102366.94
2024-04-22T01:33:03.948Z,102367.81
2024-04-22T01:35:30.591Z,102367.75
2024-04-22T01:37:57.101Z,102365.41
2024-04-22T01:40:23.565Z,102360.53
2024-04-22T01:42:50.040Z,102355.09
2024-04-22T01:45:16.550Z,102363.88
2024-04-22T01:47:43.073Z,102364.25
2024-04-22T01:50:10.107Z,102354.53
2024-04-22T01:52:36.629Z,102349.13
2024-04-22T01:55:03.156Z,102344.69
2024-04-22T01:57:29.631Z,102346.19
2024-04-22T01:59:56.152Z,102343.75
2024-04-22T02:02:22.664Z,102345.66
2024-04-22T02:04:49.167Z,102333.72
2024-04-22T02:07:15.670Z,102340.69
2024-04-22T02:09:42.158Z,102329.22
2024-04-22T02:12:08.685Z,102327.44
2024-04-22T02:14:36.944Z,102329.00
2024-04-22T02:17:03.549Z,102341.38
2024-04-22T02:19:30.103Z,102331.38
2024-04-22T02:21:56.566Z,102335.78
2024-04-22T02:24:23.055Z,102333.91
2024-04-22T02:26:49.523Z,102333.66
2024-04-22T02:29:15.991Z,102327.94
2024-04-22T02:31:43.274Z,102325.81
2024-04-22T02:34:09.787Z,102328.31
2024-04-22T02:36:36.345Z,102328.13
2024-04-22T02:39:02.832Z,102328.97
2024-04-22T02:41:29.310Z,102329.66
2024-04-22T02:43:55.776Z,102324.22
2024-04-22T02:46:22.284Z,102322.75
2024-04-22T02:48:48.744Z,102323.78
2024-04-22T02:51:15.212Z,102327.31
2024-04-22T02:53:41.658Z,102320.91
2024-04-22T02:56:08.177Z,102324.88
2024-04-22T02:58:34.894Z,102329.44
2024-04-22T03:01:06.093Z,102323.84
2024-04-22T03:03:32.704Z,102318.34
2024-04-22T03:05:59.192Z,102317.09
2024-04-22T03:08:25.676Z,102323.06
2024-04-22T03:10:52.773Z,102311.69
2024-04-22T03:13:19.337Z,102308.44
2024-04-22T03:15:45.815Z,102303.09
2024-04-22T03:18:12.274Z,102312.75
2024-04-22T03:20:38.799Z,102310.84
2024-04-22T03:23:05.313Z,102310.41
2024-04-22T03:25:31.813Z,102310.94
2024-04-22T03:27:58.302Z,102310.56
2024-04-22T03:30:24.796Z,102309.94
2024-04-22T03:32:51.262Z,102305.19
2024-04-22T03:35:18.826Z,102293.25
2024-04-22T03:37:45.531Z,102295.63
2024-04-22T03:40:12.029Z,102295.63
2024-04-22T03:42:38.878Z,102290.06
2024-04-22T03:45:05.815Z,102299.00
2024-04-22T03:47:51.383Z,102291.50
2024-04-22T03:50:17.891Z,102285.03
2024-04-22T03:52:44.382Z,102291.47
2024-04-22T03:55:10.969Z,102289.00
2024-04-22T03:57:37.468Z,102294.28
2024-04-22T04:00:04.132Z,102287.66
2024-04-22T04:02:31.273Z,102282.84
2024-04-22T04:04:57.803Z,102291.91
2024-04-22T04:07:24.328Z,102297.22
2024-04-22T04:09:50.898Z,102297.63
2024-04-22T04:12:17.486Z,102286.03
2024-04-22T04:14:43.997Z,102298.00
2024-04-22T04:17:11.484Z,102281.78
2024-04-22T04:19:38.085Z,102283.81
2024-04-22T04:22:04.812Z,102290.88
2024-04-22T04:24:31.312Z,102287.59
2024-04-22T04:26:57.848Z,102282.72
2024-04-22T04:29:24.362Z,102291.16
2024-04-22T04:31:50.864Z,102291.09
2024-04-22T04:34:17.419Z,102284.81
2024-04-22T04:36:43.879Z,102289.16
2024-04-22T04:39:11.082Z,102290.09
2024-04-22T04:41:37.593Z,102283.03
2024-04-22T04:44:04.106Z,102285.50
2024-04-22T04:46:30.566Z,102277.72
2024-04-22T04:48:57.055Z,102283.16
2024-04-22T04:51:23.531Z,102281.34
2024-04-22T04:53:50.045Z,102282.94
2024-04-22T04:56:16.864Z,102279.38
2024-04-22T04:58:43.436Z,102279.16
2024-04-22T05:01:10.014Z,102275.34
2024-04-22T05:03:36.614Z,102278.59
2024-04-22T05:06:03.615Z,102279.00
2024-04-22T05:08:30.133Z,102276.50
2024-04-22T05:10:59.044Z,102281.06
2024-04-22T05:13:25.768Z,102267.72
2024-04-22T05:15:52.273Z,102268.91
2024-04-22T05:18:18.813Z,102268.78
2024-04-22T05:20:45.652Z,102275.34
2024-04-22T05:23:12.172Z,102271.75
2024-04-22T05:25:38.698Z,102262.16
2024-04-22T05:28:05.523Z,102272.72
2024-04-22T05:30:32.040Z,102267.81
2024-04-22T05:33:05.183Z,102262.38
2024-04-22T05:35:50.430Z,102261.03
2024-04-22T05:38:16.875Z,102257.00
2024-04-22T05:40:43.392Z,102254.06
2024-04-22T05:43:09.927Z,102259.38
2024-04-22T05:45:36.480Z,102248.22
2024-04-22T05:48:03.085Z,102260.34
2024-04-22T05:50:29.658Z,102252.72
2024-04-22T05:52:56.121Z,102255.94
2024-04-22T05:55:22.653Z,102248.72
2024-04-22T05:57:49.598Z,102247.47
2024-04-22T06:00:16.226Z,102252.91
2024-04-22T06:02:42.962Z,102249.56
2024-04-22T06:05:09.517Z,102252.03
2024-04-22T06:07:37.334Z,102245.53
2024-04-22T06:10:03.927Z,102250.72
2024-04-22T06:12:30.441Z,102249.88
2024-04-22T06:14:56.905Z,102247.06
2024-04-22T06:17:23.430Z,102250.13
2024-04-22T06:19:50.936Z,102246.06
2024-04-22T06:22:17.966Z,102248.81
2024-04-22T06:24:44.453Z,102243.41
2024-04-22T06:27:11.683Z,102239.25
2024-04-22T06:29:38.313Z,102246.50
2024-04-22T06:32:05.525Z,102242.88
2024-04-22T06:34:32.358Z,102232.88
2024-04-22T06:36:58.822Z,102229.88
2024-04-22T06:39:25.562Z,102234.13
2024-04-22T06:41:52.005Z,102235.72
2024-04-22T06:44:18.469Z,102231.28
2024-04-22T06:46:45.170Z,102241.25
2024-04-22T06:49:11.725Z,102242.44
2024-04-22T06:51:38.179Z,102235.03
2024-04-22T06:54:04.958Z,102241.97
2024-04-22T06:56:31.541Z,102227.97
2024-04-22T06:58:58.028Z,102229.88
2024-04-22T07:01:31.644Z,102229.19
2024-04-22T07:04:05.940Z,102222.56
2024-04-22T07:06:32.787Z,102224.06
2024-04-22T07:08:59.719Z,102230.28
2024-04-22T07:11:26.273Z,102222.03
2024-04-22T07:13:52.721Z,102224.03
2024-04-22T07:16:21.014Z,102215.91
2024-04-22T07:21:14.079Z,102211.50
2024-04-22T07:23:40.539Z,102218.88
2024-04-22T07:26:07.058Z,102222.41
2024-04-22T07:28:33.798Z,102217.38
2024-04-22T07:31:00.636Z,102214.94
2024-04-22T07:33:30.796Z,102216.16
2024-04-22T07:36:09.858Z,102220.31
2024-04-22T07:38:36.809Z,102229.44
2024-04-22T07:41:03.616Z,102227.09
2024-04-22T07:43:30.089Z,102232.69
2024-04-22T07:45:56.548Z,102229.59
2024-04-22T07:48:23.023Z,102225.88
2024-04-22T07:50:49.533Z,102222.41
2024-04-22T07:53:16.236Z,102223.28
2024-04-22T07:55:43.001Z,102222.66
2024-04-22T07:58:09.936Z,102233.06
2024-04-22T08:00:36.998Z,102231.00
2024-04-22T08:03:04.264Z,102235.78
2024-04-22T08:05:31.198Z,102230.44
2024-04-22T08:08:00.762Z,102239.56
2024-04-22T08:10:29.022Z,102233.13
2024-04-22T08:12:55.695Z,102234.66
2024-04-22T08:15:22.343Z,102227.28
2024-04-22T08:17:49.302Z,102228.25
2024-04-22T08:20:16.164Z,102234.53
2024-04-22T08:22:42.860Z,102221.47
2024-04-22T08:25:09.491Z,102229.66
2024-04-22T08:27:35.977Z,102223.66
2024-04-22T08:30:02.601Z,102218.94
2024-04-22T08:32:29.441Z,102226.06
2024-04-22T08:34:56.494Z,102222.28
2024-04-22T08:37:23.076Z,102216.66
2024-04-22T08:39:49.544Z,102217.94
2024-04-22T08:42:16.564Z,102220.75
2024-04-22T08:44:43.090Z,102224.94
2024-04-22T08:47:09.634Z,102220.84
2024-04-22T08:49:36.132Z,102220.03
2024-04-22T08:52:04.015Z,102228.81
2024-04-22T08:54:32.897Z,102232.13
2024-04-22T08:56:59.392Z,102241.69
2024-04-22T08:59:33.744Z,102238.09
2024-04-22T09:02:06.782Z,102239.44
2024-04-22T09:04:33.422Z,102246.69
2024-04-22T09:07:03.057Z,102227.09
2024-04-22T09:09:41.843Z,102223.56
2024-04-22T09:12:19.927Z,102208.66
2024-04-22T09:14:46.732Z,102208.72
2024-04-22T09:17:17.745Z,102208.00
2024-04-22T09:19:46.611Z,102198.25
2024-04-22T09:22:14.907Z,102203.75
2024-04-22T09:24:41.876Z,102199.25
2024-04-22T09:27:08.597Z,102193.09
2024-04-22T09:29:44.022Z,102187.78
2024-04-22T09:32:13.900Z,102190.22
2024-04-22T09:34:41.691Z,102190.25
2024-04-22T09:37:08.836Z,102196.63
2024-04-22T09:39:37.373Z,102197.66
2024-04-22T09:42:04.493Z,102203.78
2024-04-22T09:44:31.812Z,102204.59
2024-04-22T09:46:59.811Z,102201.13
2024-04-22T09:49:30.112Z,102197.50
2024-04-22T09:51:58.180Z,102194.09
2024-04-22T09:54:24.925Z,102191.75
2024-04-22T09:56:53.502Z,102183.84
2024-04-22T09:59:20.874Z,102180.19
2024-04-22T10:01:47.786Z,102175.72
2024-04-22T10:04:14.955Z,102172.41
2024-04-22T10:06:42.237Z,102175.53
2024-04-22T10:09:08.932Z,102174.78
2024-04-22T10:11:36.962Z,102172.53
2024-04-22T10:14:15.195Z,102196.28
2024-04-22T10:16:42.109Z,102205.81
2024-04-22T10:19:10.002Z,102210.97
2024-04-22T10:21:42.901Z,102216.38
2024-04-22T10:24:09.413Z,102219.97
2024-04-22T10:26:47.691Z,102225.06
2024-04-22T10:29:18.913Z,102230.78
2024-04-22T10:31:45.632Z,102228.47
2024-04-22T10:34:12.243Z,102227.66
2024-04-22T10:36:38.836Z,102221.00
2024-04-22T10:39:05.393Z,102215.81
2024-04-22T10:41:32.415Z,102211.78
2024-04-22T10:43:58.937Z,102206.97
2024-04-22T10:46:25.502Z,102212.72
2024-04-22T10:48:52.609Z,102213.81
2024-04-22T10:51:19.342Z,102218.69
2024-04-22T10:53:45.804Z,102214.22
2024-04-22T10:56:12.527Z,102215.63
2024-04-22T10:58:39.467Z,102215.47
2024-04-22T11:01:06.157Z,102229.25
2024-04-22T11:03:32.741Z,102232.25
2024-04-22T11:06:05.489Z,102230.09
2024-04-22T11:08:32.076Z,102235.31
2024-04-22T11:10:59.066Z,102237.88
2024-04-22T11:13:25.919Z,102243.97
2024-04-22T11:15:52.434Z,102234.22
2024-04-22T11:18:21.231Z,102233.75
2024-04-22T11:20:48.516Z,102230.13
2024-04-22T11:23:15.100Z,102227.44
2024-04-22T11:25:43.243Z,102215.16
2024-04-22T11:28:09.771Z,102227.97
2024-04-22T11:30:37.773Z,102230.44
2024-04-22T11:33:06.061Z,102218.25
2024-04-22T11:35:38.980Z,102219.03
2024-04-22T11:38:06.001Z,102209.47
2024-04-22T11:40:32.495Z,102217.56
2024-04-22T11:42:58.988Z,102219.53
2024-04-22T11:45:25.460Z,102221.53
2024-04-22T11:47:52.141Z,102215.63
2024-04-22T11:50:18.645Z,102218.38
2024-04-22T11:52:45.365Z,102214.31
2024-04-22T11:55:11.942Z,102219.25
2024-04-22T11:57:38.472Z,102219.47
2024-04-22T12:00:05.545Z,102225.41
2024-04-22T12:02:32.030Z,102216.63
2024-04-22T12:04:59.085Z,102225.41
2024-04-22T12:07:25.765Z,102218.84
2024-04-22T12:09:52.427Z,102201.38
2024-04-22T12:12:18.911Z,102201.06
2024-04-22T12:14:45.434Z,102198.66
2024-04-22T12:17:12.802Z,102198.78
2024-04-22T12:19:39.398Z,102190.22
2024-04-22T12:22:05.893Z,102184.84
2024-04-22T12:24:32.357Z,102184.41
2024-04-22T12:27:00.085Z,102181.44
2024-04-22T12:29:27.447Z,102178.19
2024-04-22T12:31:54.011Z,102181.56
2024-04-22T12:34:20.707Z,102176.03
2024-04-22T12:36:47.322Z,102169.91
2024-04-22T12:39:13.823Z,102169.06
2024-04-22T12:41:40.350Z,102183.66
2024-04-22T12:44:07.011Z,102174.91
2024-04-22T12:46:52.356Z,102178.94
2024-04-22T12:49:37.480Z,102173.44
2024-04-22T12:52:04.185Z,102166.25
2024-04-22T12:54:30.672Z,102162.88
2024-04-22T12:56:57.188Z,102166.84
2024-04-22T12:59:23.625Z,102152.53
2024-04-22T13:01:50.246Z,102154.81
2024-04-22T13:04:16.810Z,102155.19
2024-04-22T13:06:43.339Z,102151.00
2024-04-22T13:09:11.861Z,102148.50
2024-04-22T13:11:40.540Z,102139.16
2024-04-22T13:14:07.201Z,102151.50
2024-04-22T13:16:33.728Z,102144.50
2024-04-22T13:19:01.287Z,102144.59
2024-04-22T13:21:29.010Z,102145.84
2024-04-22T13:23:55.547Z,102139.16
2024-04-22T13:26:22.061Z,102135.75
2024-04-22T13:28:48.620Z,102143.56
2024-04-22T13:31:15.226Z,102133.31
2024-04-22T13:33:43.299Z,102126.41
2024-04-22T13:36:09.913Z,102122.44
2024-04-22T13:38:36.384Z,102128.19
2024-04-22T13:41:02.996Z,102129.25
2024-04-22T13:43:29.699Z,102130.19
2024-04-22T13:45:56.287Z,102131.94
2024-04-22T13:48:23.841Z,102122.44
2024-04-22T13:50:50.510Z,102137.81
2024-04-22T13:53:26.038Z,102119.09
2024-04-22T13:55:59.128Z,102134.75
2024-04-22T13:58:26.175Z,102127.84
2024-04-22T14:00:52.904Z,102129.97
2024-04-22T14:03:19.376Z,102131.75
2024-04-22T14:05:45.906Z,102130.94
2024-04-22T14:08:12.406Z,102134.75
2024-04-22T14:10:38.931Z,102132.97
2024-04-22T14:13:05.435Z,102138.38
2024-04-22T14:15:44.423Z,102131.75
2024-04-22T14:18:14.305Z,102131.69
2024-04-22T14:20:40.872Z,102141.84
2024-04-22T14:23:07.353Z,102136.41
2024-04-22T14:25:35.569Z,102147.44
2024-04-22T14:28:02.220Z,102143.47
2024-04-22T14:30:28.715Z,102137.91
2024-04-22T14:32:55.252Z,102133.03
2024-04-22T14:35:21.821Z,102141.47
2024-04-22T14:37:48.668Z,102129.84
2024-04-22T14:40:15.518Z,102134.56
2024-04-22T14:42:42.048Z,102141.66
2024-04-22T14:45:08.751Z,102134.47
2024-04-22T14:47:35.348Z,102136.25
2024-04-22T14:50:01.925Z,102142.53
2024-04-22T14:52:28.412Z,102137.09
2024-04-22T14:54:55.263Z,102134.50
2024-04-22T14:57:21.710Z,102136.34
2024-04-22T14:59:48.194Z,102135.84
2024-04-22T15:02:16.736Z,102123.22
2024-04-22T15:04:43.295Z,102134.72
2024-04-22T15:07:09.815Z,102133.69
2024-04-22T15:09:46.736Z,102134.75
2024-04-22T15:12:13.992Z,102123.38
2024-04-22T15:14:40.470Z,102127.69
2024-04-22T15:17:07.316Z,102124.06
2024-04-22T15:19:34.189Z,102114.19
2024-04-22T15:22:00.677Z,102120.72
2024-04-22T15:24:27.226Z,102119.53
2024-04-22T15:26:54.763Z,102112.81
2024-04-22T15:29:21.326Z,102117.22
2024-04-22T15:31:47.955Z,102118.41
2024-04-22T15:34:14.465Z,102114.22
2024-04-22T15:36:40.963Z,102114.97
2024-04-22T15:39:08.643Z,102117.53
2024-04-22T15:41:35.497Z,102110.63
2024-04-22T15:44:03.324Z,102119.91
2024-04-22T15:46:31.006Z,102116.94
2024-04-22T15:48:57.789Z,102120.19
2024-04-22T15:51:24.815Z,102118.09
2024-04-22T15:53:51.326Z,102126.69
2024-04-22T15:56:17.792Z,102116.13
2024-04-22T15:58:44.316Z,102118.50
2024-04-22T16:01:10.846Z,102120.38
2024-04-22T16:03:37.426Z,102125.19
2024-04-22T16:06:04.299Z,102121.00
2024-04-22T16:08:32.436Z,102121.88
2024-04-22T16:10:59.213Z,102113.06
2024-04-22T16:13:25.999Z,102129.69
2024-04-22T16:15:52.733Z,102134.63
2024-04-22T16:18:19.862Z,102132.41
2024-04-22T16:20:56.356Z,102124.84
2024-04-22T16:23:31.556Z,102123.78
2024-04-22T16:25:59.808Z,102117.56
2024-04-22T16:28:26.315Z,102123.84
2024-04-22T16:30:52.764Z,102121.75
2024-04-22T16:33:19.382Z,102122.31
2024-04-22T16:35:45.866Z,102119.09
2024-04-22T16:38:12.470Z,102123.88
2024-04-22T16:40:38.964Z,102126.50
2024-04-22T16:43:08.462Z,102120.94
2024-04-22T16:45:35.024Z,102124.53
2024-04-22T16:48:01.712Z,102125.47
2024-04-22T16:50:28.420Z,102130.47
2024-04-22T16:52:54.936Z,102117.38
2024-04-22T16:55:21.450Z,102124.00
2024-04-22T16:57:47.939Z,102128.75
2024-04-22T17:00:14.982Z,102126.84
2024-04-22T17:02:41.627Z,102128.94
2024-04-22T17:05:08.777Z,102124.38
2024-04-22T17:07:35.925Z,102134.91
2024-04-22T17:10:07.171Z,102129.41
2024-04-22T17:12:34.183Z,102139.94
2024-04-22T17:15:01.511Z,102129.31
2024-04-22T17:17:28.202Z,102124.00
2024-04-22T17:19:54.866Z,102123.19
2024-04-22T17:22:21.411Z,102126.50
2024-04-22T17:24:51.842Z,102125.78
2024-04-22T17:27:21.322Z,102127.31
2024-04-22T17:29:48.504Z,102135.41
2024-04-22T17:32:15.536Z,102135.03
2024-04-22T17:34:42.048Z,102135.09
2024-04-22T17:37:08.558Z,102135.41
2024-04-22T17:39:35.802Z,102141.63
2024-04-22T17:42:02.284Z,102135.75
2024-04-22T17:44:28.738Z,102136.84
2024-04-22T17:46:55.852Z,102132.50
2024-04-22T17:49:23.857Z,102129.88
2024-04-22T17:51:50.760Z,102138.78
2024-04-22T17:54:17.207Z,102130.22
2024-04-22T17:56:47.051Z,102138.78
2024-04-22T17:59:19.315Z,102137.13
2024-04-22T18:01:45.886Z,102149.06
2024-04-22T18:04:12.430Z,102133.03
2024-04-22T18:06:38.906Z,102139.22
2024-04-22T18:09:05.405Z,102144.88
2024-04-22T18:11:31.994Z,102141.16
2024-04-22T18:13:58.561Z,102137.47
2024-04-22T18:16:25.053Z,102150.91
2024-04-22T18:18:51.561Z,102140.00
2024-04-22T18:21:18.017Z,102137.94
2024-04-22T18:23:45.371Z,102133.00
2024-04-22T18:26:14.774Z,102140.53
2024-04-22T18:28:41.726Z,102135.88
2024-04-22T18:31:08.190Z,102139.91
2024-04-22T18:33:34.923Z,102134.16
2024-04-22T18:36:01.440Z,102142.78
2024-04-22T18:38:29.014Z,102140.75
2024-04-22T18:40:55.675Z,102142.47
2024-04-22T18:43:22.503Z,102139.44
2024-04-22T18:45:49.138Z,102144.06
2024-04-22T18:48:15.956Z,102142.53
2024-04-22T18:50:42.520Z,102133.28
2024-04-22T18:53:09.025Z,102143.28
2024-04-22T18:55:35.629Z,102136.31
2024-04-22T18:58:02.218Z,102141.63
2024-04-22T19:00:28.704Z,102141.47
2024-04-22T19:02:55.308Z,102140.69
2024-04-22T19:05:22.485Z,102146.88
2024-04-22T19:07:49.172Z,102135.03
2024-04-22T19:10:15.709Z,102138.03
2024-04-22T19:12:42.639Z,102127.56
2024-04-22T19:15:09.620Z,102134.34
2024-04-22T19:17:36.292Z,102137.28
2024-04-22T19:20:03.062Z,102136.38
2024-04-22T19:22:29.574Z,102139.31
2024-04-22T19:24:56.052Z,102135.56
2024-04-22T19:27:23.013Z,102132.34
2024-04-22T19:29:49.550Z,102134.03
2024-04-22T19:32:16.144Z,102133.00
2024-04-22T19:34:45.666Z,102134.63
2024-04-22T19:37:12.761Z,102130.47
2024-04-22T19:39:39.228Z,102134.47
2024-04-22T19:42:06.192Z,102133.47
2024-04-22T19:44:32.660Z,102129.19
2024-04-22T19:46:59.315Z,102128.31
2024-04-22T19:49:25.959Z,102136.53
2024-04-22T19:51:52.495Z,102128.97
2024-04-22T19:54:19.196Z,102126.84
2024-04-22T19:56:45.749Z,102132.47
2024-04-22T19:59:12.252Z,102122.44
2024-04-22T20:01:38.790Z,102129.31
2024-04-22T20:04:05.629Z,102131.00
2024-04-22T20:06:32.146Z,102133.00
2024-04-22T20:08:58.619Z,102128.22
2024-04-22T20:11:25.097Z,102128.78
2024-04-22T20:13:51.609Z,102120.88
2024-04-22T20:16:26.600Z,102125.09
2024-04-22T20:19:01.964Z,102135.75
2024-04-22T20:21:28.458Z,102126.13
2024-04-22T20:23:55.240Z,102134.44
2024-04-22T20:26:23.212Z,102130.28
2024-04-22T20:28:53.036Z,102133.41
2024-04-22T20:31:21.116Z,102134.66
2024-04-22T20:33:47.804Z,102128.38
2024-04-22T20:36:14.400Z,102125.81
2024-04-22T20:38:40.924Z,102120.34
2024-04-22T20:41:07.532Z,102127.16
2024-04-22T20:43:34.625Z,102136.19
2024-04-22T20:46:01.797Z,102134.72
2024-04-22T20:48:33.138Z,102138.63
2024-04-22T20:51:03.938Z,102140.13
2024-04-22T20:53:31.536Z,102135.84
2024-04-22T20:56:03.131Z,102136.00
2024-04-22T20:58:30.658Z,102130.13
2024-04-22T21:01:05.012Z,102137.41
2024-04-22T21:03:32.037Z,102135.53
2024-04-22T21:05:59.956Z,102135.88
2024-04-22T21:08:27.593Z,102134.41
2024-04-22T21:10:55.196Z,102133.53
2024-04-22T21:13:22.397Z,102124.38
2024-04-22T21:15:49.075Z,102130.94
2024-04-22T21:18:18.931Z,102131.81
2024-04-22T21:20:47.694Z,102125.63
2024-04-22T21:23:15.841Z,102128.03
2024-04-22T21:25:42.349Z,102128.47
2024-04-22T21:28:08.815Z,102122.94
2024-04-22T21:30:35.310Z,102119.88
2024-04-22T21:33:18.179Z,102128.19
2024-04-22T21:35:48.550Z,102126.84
2024-04-22T21:38:16.867Z,102124.94
2024-04-22T21:40:43.966Z,102116.56
2024-04-22T21:43:10.473Z,102122.56
2024-04-22T21:45:37.300Z,102117.94
2024-04-22T21:48:03.963Z,102116.06
2024-04-22T21:50:30.458Z,102118.44
2024-04-22T21:52:56.977Z,102116.31
2024-04-22T21:55:35.709Z,102115.03
2024-04-22T21:58:40.051Z,102110.53
2024-04-22T22:01:44.327Z,102115.84
2024-04-22T22:04:48.470Z,102113.13
2024-04-22T22:07:15.098Z,102118.16
2024-04-22T22:09:41.552Z,102112.28
2024-04-22T22:12:08.163Z,102114.53
2024-04-22T22:14:35.232Z,102113.44
2024-04-22T22:17:01.970Z,102120.22
2024-04-22T22:19:29.145Z,102111.31
2024-04-22T22:21:55.662Z,102118.56
2024-04-22T22:24:22.107Z,102110.66
2024-04-22T22:26:48.554Z,102112.41
2024-04-22T22:29:15.012Z,102114.91
2024-04-22T22:31:41.563Z,102107.41
2024-04-22T22:34:08.078Z,102108.28
2024-04-22T22:36:34.588Z,102104.50
2024-04-22T22:39:01.035Z,102099.53
2024-04-22T22:41:29.380Z,102094.41
2024-04-22T22:43:55.896Z,102096.38
2024-04-22T22:46:22.434Z,102098.28
2024-04-22T22:48:48.905Z,102091.81
2024-04-22T22:51:15.375Z,102086.47
2024-04-22T22:53:41.852Z,102083.47
2024-04-22T22:56:08.674Z,102088.16
2024-04-22T22:58:35.159Z,102085.16
2024-04-22T23:01:01.803Z,102081.97
2024-04-22T23:03:28.318Z,102081.03
2024-04-22T23:05:54.794Z,102080.19
2024-04-22T23:08:21.231Z,102079.50
2024-04-22T23:10:47.701Z,102077.75
2024-04-22T23:13:14.735Z,102074.25
2024-04-22T23:15:41.243Z,102075.16
2024-04-22T23:18:08.450Z,102068.84
2024-04-22T23:20:34.944Z,102066.53
2024-04-22T23:23:01.461Z,102072.97
2024-04-22T23:25:27.989Z,102062.25
2024-04-22T23:27:54.476Z,102064.72
2024-04-22T23:30:20.923Z,102060.84
2024-04-22T23:32:47.561Z,102057.53
2024-04-22T23:35:14.121Z,102049.44
2024-04-22T23:37:40.646Z,102054.94
2024-04-22T23:40:07.663Z,102048.16
2024-04-22T23:42:34.132Z,102045.47
2024-04-22T23:45:00.669Z,102046.22
2024-04-22T23:47:27.168Z,102039.53
2024-04-22T23:49:53.713Z,102038.28
2024-04-22T23:52:20.200Z,102042.75
2024-04-22T23:54:46.672Z,102040.94
2024-04-22T23:57:13.127Z,102037.78
2024-04-22T23:59:39.618Z,102042.50
